Terminal Aerodrome Forecast
Issued by NWS

Home | Current Version | Previous Version | Text Only | Print | Product List | Glossary On
Versions: 1 2 3 4 5 6 7 8 9 10 11 12 13 14 15 16 17 18 19 20 21 22 23 24 25 26 27 28 29 30 31 32 33
000
FTUS42 KFFC 031738
TAFPDK
TAF
KPDK 031738Z 0318/0418 26012G18KT P6SM -RA BKN080
     FM031900 26014G21KT P6SM VCSH SCT045 BKN080
      TEMPO 0319/0322 VRB20G30KT 2SM +TSRA BR OVC025CB
     FM032200 28010KT P6SM -RA SCT025 BKN050
     FM040600 23005KT P6SM VCSH SCT020 BKN040
      TEMPO 0406/0410 VRB15G25KT 3SM TSRA BKN020CB
     FM041000 25009KT P6SM -SHRA SCT015 BKN035=

USA.gov is the U.S. government's official web portal to all federal, state and local government web resources and services.